Time;durP1;ratioP1;P1;durP2;ratioP2;P2;SDS_P1;SDS_P2;PMS_P1;PMS_P2;Temp;Humidity;BMP_temperature;BMP_pressure;BME280_temperature;BME280_humidity;BME280_pressure;Samples;Min_cycle;Max_cycle;Signal;HPM_P1;HPM_P2
2024/01/10 00:00:39;;;;;;;41.93;20.20;;;-7.90;99.90;;;;;;5152762;28;20033;-34
2024/01/10 00:03:16;;;;;;;53.00;21.50;;;-8.10;99.90;;;;;;5168253;28;20038;-34
2024/01/10 00:05:55;;;;;;;43.63;18.97;;;-8.20;99.90;;;;;;5168550;28;20041;-35
2024/01/10 00:08:26;;;;;;;43.10;19.60;;;-8.20;1.00;;;;;;5168594;28;20251;-35
2024/01/10 00:10:57;;;;;;;43.77;21.03;;;-8.00;1.00;;;;;;5159674;28;20476;-35
2024/01/10 00:13:32;;;;;;;46.77;22.13;;;-8.00;1.00;;;;;;5154384;28;20324;-34
2024/01/10 00:16:03;;;;;;;45.73;21.07;;;-8.00;1.00;;;;;;5163502;28;20030;-34
2024/01/10 00:18:34;;;;;;;47.40;21.73;;;-7.90;1.00;;;;;;5168078;28;20084;-34
2024/01/10 00:21:09;;;;;;;44.07;20.47;;;-8.00;1.00;;;;;;5152985;28;20041;-34
2024/01/10 00:23:43;;;;;;;40.63;19.97;;;-8.00;1.00;;;;;;5165328;28;20040;-34
2024/01/10 00:26:17;;;;;;;;;;;-8.00;1.00;;;;;;5150819;28;20038;-35
2024/01/10 00:28:50;;;;;;;46.95;20.48;;;-8.00;1.00;;;;;;5168130;28;20117;-35
2024/01/10 00:31:27;;;;;;;40.10;20.27;;;-7.90;1.00;;;;;;5164222;28;20040;-36
2024/01/10 00:34:05;;;;;;;42.07;19.27;;;-8.00;1.00;;;;;;5151219;28;20038;-34
2024/01/10 00:36:39;;;;;;;42.87;19.27;;;-7.90;1.00;;;;;;5150523;28;20030;-34
2024/01/10 00:39:13;;;;;;;52.42;21.67;;;-8.00;1.00;;;;;;5166634;28;20034;-34
2024/01/10 00:41:44;;;;;;;48.83;20.83;;;-8.10;1.00;;;;;;5160479;28;20042;-33
2024/01/10 00:44:18;;;;;;;47.07;20.60;;;-7.90;1.00;;;;;;5167447;28;20048;-33
2024/01/10 00:46:49;;;;;;;;;;;-8.10;1.00;;;;;;5163255;28;20042;-33
2024/01/10 00:49:22;;;;;;;43.50;19.13;;;-8.00;1.00;;;;;;5166651;28;19910;-33
2024/01/10 00:51:56;;;;;;;47.92;21.27;;;-8.10;1.00;;;;;;5165800;28;20034;-33
2024/01/10 00:54:27;;;;;;;47.42;20.55;;;-8.00;1.00;;;;;;5164733;28;20316;-34
2024/01/10 00:56:58;;;;;;;47.40;20.73;;;-8.00;1.00;;;;;;5167278;28;20486;-33
2024/01/10 00:59:30;;;;;;;42.90;21.10;;;-8.00;1.00;;;;;;5146001;28;20030;-33
2024/01/10 01:02:01;;;;;;;42.53;19.17;;;-8.00;1.00;;;;;;5145396;28;20034;-33
2024/01/10 01:04:35;;;;;;;43.43;20.73;;;-8.20;1.00;;;;;;5161505;28;20024;-33
2024/01/10 01:07:09;;;;;;;46.00;20.70;;;-8.20;1.00;;;;;;5156929;28;20034;-33
2024/01/10 01:09:42;;;;;;;;;;;-8.20;1.00;;;;;;5166772;28;20044;-33
2024/01/10 01:12:16;;;;;;;40.60;20.77;;;-8.20;1.00;;;;;;5167124;28;20101;-33
2024/01/10 01:14:49;;;;;;;45.08;20.15;;;-8.20;1.00;;;;;;5167581;28;20046;-33
2024/01/10 01:17:21;;;;;;;52.08;20.80;;;-8.40;1.00;;;;;;5152405;28;20280;-33
2024/01/10 01:19:53;;;;;;;52.73;21.90;;;-8.40;1.00;;;;;;5160312;28;20034;-33
2024/01/10 01:22:28;;;;;;;48.33;22.50;;;-8.30;99.90;;;;;;5151855;28;20030;-33
2024/01/10 01:25:02;;;;;;;47.17;22.23;;;-8.20;99.90;;;;;;5144367;28;20034;-33
2024/01/10 01:27:33;;;;;;;51.57;21.77;;;-7.90;99.90;;;;;;5154036;28;20046;-33
2024/01/10 01:30:05;;;;;;;49.73;22.97;;;-7.70;1.00;;;;;;5165728;28;20026;-33
2024/01/10 01:32:37;;;;;;;49.57;21.97;;;-7.70;99.90;;;;;;5167589;28;20038;-33
2024/01/10 01:35:11;;;;;;;47.63;20.60;;;-7.70;99.90;;;;;;5167076;28;20384;-33
2024/01/10 01:37:42;;;;;;;;;;;-7.80;1.00;;;;;;5161130;28;20212;-33
2024/01/10 01:40:16;;;;;;;45.77;21.60;;;-7.90;1.00;;;;;;5166382;28;19925;-33
2024/01/10 01:42:47;;;;;;;47.23;22.33;;;-8.00;99.90;;;;;;5165879;28;20044;-33
2024/01/10 01:45:21;;;;;;;47.83;22.03;;;-8.10;99.90;;;;;;5146452;28;20027;-33
2024/01/10 01:47:58;;;;;;;44.25;19.50;;;-8.10;99.90;;;;;;5146862;28;20042;-33
2024/01/10 01:50:32;;;;;;;49.40;21.93;;;-8.00;1.00;;;;;;5164398;28;20034;-33
2024/01/10 01:53:08;;;;;;;50.58;21.98;;;-7.90;1.00;;;;;;5166623;28;20216;-33
2024/01/10 01:55:41;;;;;;;47.67;21.00;;;-7.90;1.00;;;;;;5167288;28;20040;-33
2024/01/10 01:58:13;;;;;;;42.22;20.55;;;-8.20;99.90;;;;;;5147294;28;20037;-33
2024/01/10 02:00:44;;;;;;;45.83;20.67;;;-8.50;99.90;;;;;;5163151;28;20034;-33
2024/01/10 02:03:16;;;;;;;50.93;21.43;;;-8.60;1.00;;;;;;5166374;28;20029;-33
2024/01/10 02:05:47;;;;;;;50.10;22.87;;;-8.40;1.00;;;;;;5147172;28;20031;-33
2024/01/10 02:08:21;;;;;;;46.03;21.40;;;-8.60;1.00;;;;;;5129505;28;20543;-33
2024/01/10 02:10:53;;;;;;;45.83;21.33;;;-8.50;1.00;;;;;;5161183;28;20038;-33
2024/01/10 02:13:24;;;;;;;52.83;22.60;;;-8.60;1.00;;;;;;5165454;28;20211;-33
2024/01/10 02:15:57;;;;;;;53.67;23.13;;;-8.70;1.00;;;;;;5143109;28;20242;-33
2024/01/10 02:18:31;;;;;;;49.60;23.15;;;-8.60;1.00;;;;;;5162280;28;20037;-33
2024/01/10 02:21:02;;;;;;;56.70;23.80;;;-8.60;1.00;;;;;;5166604;28;20040;-32
2024/01/10 02:23:35;;;;;;;51.60;23.03;;;-8.70;1.00;;;;;;5146336;28;20033;-33
2024/01/10 02:26:10;;;;;;;50.20;23.73;;;-8.70;1.00;;;;;;5157997;28;20030;-33
2024/01/10 02:28:44;;;;;;;50.80;24.53;;;-8.80;1.00;;;;;;5146861;28;20042;-33
2024/01/10 02:31:15;;;;;;;;;;;-8.90;21.80;;;;;;5163627;28;20034;-33
2024/01/10 02:33:49;;;;;;;46.47;24.30;;;-8.90;99.90;;;;;;5166605;28;20132;-33
2024/01/10 02:36:28;;;;;;;48.87;23.03;;;-8.70;1.00;;;;;;5163912;28;20030;-33
2024/01/10 02:38:59;;;;;;;57.53;24.07;;;-8.60;1.00;;;;;;5165783;28;20026;-33
2024/01/10 02:41:31;;;;;;;56.43;25.37;;;-8.60;1.00;;;;;;5170088;28;20278;-33
2024/01/10 02:44:02;;;;;;;54.47;25.40;;;-8.60;99.90;;;;;;5166719;28;20031;-33
2024/01/10 02:46:33;;;;;;;53.23;24.57;;;-8.80;88.10;;;;;;5131460;28;20045;-33
2024/01/10 02:49:04;;;;;;;51.43;25.00;;;-8.80;99.90;;;;;;5161599;28;20030;-32
2024/01/10 02:51:38;;;;;;;57.97;25.47;;;-8.90;99.90;;;;;;5152814;28;20215;-33
2024/01/10 02:54:18;;;;;;;57.08;25.63;;;-9.00;99.90;;;;;;5170046;28;20044;-32
2024/01/10 02:56:49;;;;;;;53.20;23.63;;;-9.00;1.00;;;;;;5168854;28;20049;-32
2024/01/10 02:59:20;;;;;;;47.27;22.40;;;-8.90;1.00;;;;;;5164290;28;20050;-33
2024/01/10 03:01:58;;;;;;;54.33;23.47;;;-8.90;1.00;;;;;;5167395;28;20046;-33
2024/01/10 03:04:34;;;;;;;55.07;24.27;;;-9.00;1.00;;;;;;5169643;28;20034;-32
2024/01/10 03:07:08;;;;;;;57.37;26.00;;;-9.00;1.00;;;;;;5168768;28;20034;-32
2024/01/10 03:09:40;;;;;;;53.63;23.70;;;-9.10;1.00;;;;;;5154325;28;20049;-33
2024/01/10 03:12:12;;;;;;;52.47;24.27;;;-9.10;1.00;;;;;;5152625;28;20039;-32
2024/01/10 03:14:47;;;;;;;56.73;25.93;;;-9.10;1.00;;;;;;5182535;28;20034;-32
2024/01/10 03:17:20;;;;;;;56.90;25.23;;;-9.20;1.00;;;;;;5148962;28;20044;-32
2024/01/10 03:19:52;;;;;;;56.38;25.23;;;-9.30;1.00;;;;;;5151976;28;20049;-32
2024/01/10 03:22:23;;;;;;;62.57;28.07;;;-9.20;1.00;;;;;;5181972;28;20049;-32
2024/01/10 03:24:57;;;;;;;60.53;26.00;;;-9.20;1.00;;;;;;5168539;28;20037;-32
2024/01/10 03:27:32;;;;;;;61.67;27.80;;;-9.20;1.00;;;;;;5146317;28;20042;-34
2024/01/10 03:30:04;;;;;;;56.50;25.53;;;-9.30;1.00;;;;;;5167283;28;20049;-33
2024/01/10 03:32:35;;;;;;;57.97;25.70;;;-9.20;1.00;;;;;;5169007;28;20050;-33
2024/01/10 03:35:09;;;;;;;58.67;26.20;;;-9.00;1.00;;;;;;5163815;28;20049;-32
2024/01/10 03:37:43;;;;;;;57.17;26.13;;;-9.00;1.00;;;;;;5163341;28;20038;-33
2024/01/10 03:40:17;;;;;;;56.50;26.33;;;-9.00;1.00;;;;;;5144645;28;20054;-32
2024/01/10 03:42:48;;;;;;;56.80;25.97;;;-9.00;99.90;;;;;;5168896;28;20034;-33
2024/01/10 03:45:23;;;;;;;58.80;27.73;;;-9.10;99.90;;;;;;5166079;28;20233;-33
2024/01/10 03:47:54;;;;;;;61.43;26.10;;;-9.10;99.90;;;;;;5166633;28;20038;-33
2024/01/10 03:50:30;;;;;;;62.70;27.80;;;-9.00;1.00;;;;;;5169135;28;20044;-33
2024/01/10 03:53:26;;;;;;;57.27;26.10;;;-9.00;99.90;;;;;;5164825;28;20273;-32
2024/01/10 03:55:57;;;;;;;58.50;27.37;;;-8.80;1.00;;;;;;5149614;28;20376;-33
2024/01/10 03:58:29;;;;;;;56.23;26.43;;;-8.80;1.00;;;;;;5159155;28;20069;-32
2024/01/10 04:01:13;;;;;;;46.30;21.23;;;-8.70;1.00;;;;;;5148506;28;20054;-34
2024/01/10 04:03:44;;;;;;;54.23;23.37;;;-8.70;1.00;;;;;;5152043;28;20034;-32
2024/01/10 04:06:19;;;;;;;55.47;26.20;;;-8.60;1.00;;;;;;5164890;28;20356;-32
2024/01/10 04:08:53;;;;;;;55.67;26.97;;;-8.50;1.00;;;;;;5162175;28;20052;-32
2024/01/10 04:11:27;;;;;;;57.15;26.75;;;-8.60;99.90;;;;;;5166079;28;20022;-32
2024/01/10 04:14:01;;;;;;;58.77;26.37;;;-8.90;99.90;;;;;;5169233;28;20042;-32
2024/01/10 04:16:33;;;;;;;62.30;28.67;;;-9.10;99.90;;;;;;5164952;28;20203;-33
2024/01/10 04:19:06;;;;;;;54.53;26.20;;;-9.10;1.00;;;;;;5150523;28;20048;-32
2024/01/10 04:21:37;;;;;;;66.93;26.50;;;-9.10;1.00;;;;;;5166372;28;20037;-33
2024/01/10 04:24:16;;;;;;;65.27;27.50;;;-9.00;1.00;;;;;;5166600;28;20045;-32
2024/01/10 04:26:51;;;;;;;57.50;25.53;;;-9.00;1.00;;;;;;5163132;28;20044;-32
2024/01/10 04:29:26;;;;;;;62.77;28.53;;;-9.20;1.00;;;;;;5166018;28;20046;-32
2024/01/10 04:32:02;;;;;;;61.10;29.03;;;-9.20;1.00;;;;;;5163924;28;20393;-32
2024/01/10 04:34:34;;;;;;;61.80;28.00;;;-9.20;1.00;;;;;;5145396;28;20026;-32
2024/01/10 04:37:10;;;;;;;66.73;29.73;;;-9.30;1.00;;;;;;5159520;28;20038;-32
2024/01/10 04:39:44;;;;;;;68.07;30.13;;;-9.40;1.00;;;;;;5168522;28;20030;-32
2024/01/10 04:42:15;;;;;;;;;;;-9.30;1.00;;;;;;5135778;28;20038;-32
2024/01/10 04:44:49;;;;;;;65.57;30.63;;;-9.30;1.00;;;;;;5165755;28;19913;-32
2024/01/10 04:47:24;;;;;;;68.33;32.13;;;-9.20;1.00;;;;;;5147424;28;20203;-32
2024/01/10 04:49:58;;;;;;;69.13;32.00;;;-9.10;1.00;;;;;;5149762;28;20026;-32
2024/01/10 04:52:30;;;;;;;67.90;32.00;;;-9.00;99.90;;;;;;5177706;28;20040;-31
2024/01/10 04:55:02;;;;;;;68.83;31.57;;;-9.00;99.90;;;;;;5185004;28;20049;-31
2024/01/10 04:57:34;;;;;;;62.73;31.70;;;-8.90;1.00;;;;;;5187219;28;20040;-31
2024/01/10 05:00:07;;;;;;;66.93;30.10;;;-9.00;99.90;;;;;;5168237;28;20038;-31
2024/01/10 05:02:42;;;;;;;72.30;30.10;;;-9.10;99.90;;;;;;5187738;28;20034;-31
2024/01/10 05:05:23;;;;;;;67.37;30.47;;;-8.90;99.90;;;;;;5161820;28;20337;-31
2024/01/10 05:08:02;;;;;;;66.90;30.53;;;-8.80;1.00;;;;;;5179846;28;20429;-31
2024/01/10 05:10:39;;;;;;;66.10;31.27;;;-8.70;99.90;;;;;;5155258;28;20034;-31
2024/01/10 05:13:11;;;;;;;65.00;28.70;;;-8.70;99.90;;;;;;5170578;28;20034;-33
2024/01/10 05:15:45;;;;;;;66.27;30.00;;;-8.80;99.90;;;;;;5172809;28;20038;-31
2024/01/10 05:18:17;;;;;;;72.57;29.93;;;-8.60;99.90;;;;;;5163191;28;20041;-31
2024/01/10 05:20:48;;;;;;;65.67;29.17;;;-8.80;1.00;;;;;;5170527;28;20401;-31
2024/01/10 05:23:19;;;;;;;65.60;27.90;;;-8.90;99.90;;;;;;5191513;28;20029;-31
2024/01/10 05:25:52;;;;;;;69.87;29.67;;;-8.90;99.90;;;;;;5185436;28;20036;-32
2024/01/10 05:28:26;;;;;;;68.97;31.48;;;-9.00;99.90;;;;;;5188338;28;20032;-32
2024/01/10 05:30:58;;;;;;;;;;;-9.00;99.90;;;;;;5183794;28;20040;-31
2024/01/10 05:33:29;;;;;;;77.40;33.17;;;-9.00;99.90;;;;;;5183556;28;20264;-31
2024/01/10 05:36:05;;;;;;;67.03;32.77;;;-9.20;99.90;;;;;;5153205;28;20245;-31
2024/01/10 05:38:37;;;;;;;74.50;33.90;;;-9.30;99.90;;;;;;5184012;28;20042;-31
2024/01/10 05:41:10;;;;;;;70.23;30.63;;;-9.20;1.00;;;;;;5187891;28;20022;-31
2024/01/10 05:43:47;;;;;;;79.15;34.20;;;-9.00;1.00;;;;;;5183461;28;20030;-31
2024/01/10 05:46:23;;;;;;;70.70;32.60;;;-8.80;1.00;;;;;;5178897;28;20044;-31
2024/01/10 05:48:56;;;;;;;72.90;32.13;;;-8.80;1.00;;;;;;5170409;28;20038;-31
2024/01/10 05:51:37;;;;;;;68.38;30.30;;;-9.00;99.90;;;;;;5188187;28;20179;-31
2024/01/10 05:54:11;;;;;;;73.13;32.67;;;-9.00;1.00;;;;;;5187942;28;20318;-32
2024/01/10 05:56:45;;;;;;;72.93;29.97;;;-8.90;1.00;;;;;;5155853;28;20453;-31
2024/01/10 05:59:17;;;;;;;73.27;31.93;;;-8.90;1.00;;;;;;5187048;28;20041;-31
2024/01/10 06:01:50;;;;;;;80.97;36.13;;;-8.80;1.00;;;;;;5184271;28;20322;-31
2024/01/10 06:04:21;;;;;;;77.15;30.98;;;-8.70;1.00;;;;;;5187008;28;20029;-31
2024/01/10 06:06:54;;;;;;;70.20;30.47;;;-8.70;1.00;;;;;;5184388;28;20048;-34
2024/01/10 06:09:30;;;;;;;66.93;29.90;;;-8.80;99.90;;;;;;5188028;28;20030;-31
2024/01/10 06:12:01;;;;;;;62.97;30.20;;;-8.90;99.90;;;;;;5179343;28;20045;-31
2024/01/10 06:14:33;;;;;;;72.43;32.37;;;-9.00;99.90;;;;;;5184016;28;20427;-31
2024/01/10 06:17:04;;;;;;;76.27;33.23;;;-9.10;99.90;;;;;;5178265;28;20060;-31
2024/01/10 06:19:36;;;;;;;81.60;35.30;;;-9.10;1.00;;;;;;5189584;28;20225;-31
2024/01/10 06:22:13;;;;;;;78.30;36.10;;;-8.90;1.00;;;;;;5191300;28;20037;-31
2024/01/10 06:24:47;;;;;;;76.13;34.07;;;-8.90;1.00;;;;;;5190086;28;20033;-31
2024/01/10 06:27:20;;;;;;;75.40;33.07;;;-8.90;1.00;;;;;;5188855;28;20044;-31
2024/01/10 06:29:55;;;;;;;69.60;33.83;;;-8.90;1.00;;;;;;5188175;28;20034;-32
2024/01/10 06:32:29;;;;;;;73.97;30.97;;;-8.60;93.60;;;;;;5173045;28;20031;-31
2024/01/10 06:35:01;;;;;;;73.03;31.57;;;-8.60;1.00;;;;;;5181708;28;20042;-31
2024/01/10 06:37:32;;;;;;;67.07;30.30;;;-8.60;1.00;;;;;;5189435;28;20034;-31
2024/01/10 06:40:06;;;;;;;73.43;31.50;;;-8.70;1.00;;;;;;5188904;28;20020;-32
2024/01/10 06:42:38;;;;;;;73.47;31.03;;;-8.80;1.00;;;;;;5187560;28;20041;-31
2024/01/10 06:45:11;;;;;;;76.67;30.23;;;-8.90;1.00;;;;;;5173976;28;20245;-31
2024/01/10 06:47:43;;;;;;;82.07;34.15;;;-8.80;1.00;;;;;;5179516;28;20324;-32
2024/01/10 06:50:14;;;;;;;86.23;36.77;;;-8.70;1.00;;;;;;5174726;28;20038;-31
2024/01/10 06:52:48;;;;;;;75.70;36.23;;;-8.70;1.00;;;;;;5180820;28;20042;-31
2024/01/10 06:55:24;;;;;;;72.23;34.10;;;-8.60;1.00;;;;;;5168549;28;20042;-31
2024/01/10 06:58:02;;;;;;;72.80;33.37;;;-8.60;1.00;;;;;;5160936;28;20041;-30
2024/01/10 07:00:38;;;;;;;69.50;31.57;;;-8.50;1.00;;;;;;5172653;28;20036;-31
2024/01/10 07:03:09;;;;;;;71.78;32.13;;;-8.40;1.00;;;;;;5187047;28;20038;-31
2024/01/10 07:05:44;;;;;;;76.90;31.70;;;-8.30;1.00;;;;;;5178093;28;20238;-31
2024/01/10 07:08:16;;;;;;;68.43;30.83;;;-8.30;1.00;;;;;;5169778;28;20030;-31
2024/01/10 07:10:51;;;;;;;79.43;35.47;;;-8.30;1.00;;;;;;5169363;28;20048;-31
2024/01/10 07:13:24;;;;;;;81.40;34.67;;;-8.30;99.90;;;;;;5180530;28;20037;-31
2024/01/10 07:16:01;;;;;;;79.30;35.37;;;-8.30;99.90;;;;;;5177115;28;20106;-30
2024/01/10 07:18:37;;;;;;;89.37;32.90;;;-8.30;99.90;;;;;;5179329;28;20046;-31
2024/01/10 07:21:09;;;;;;;66.60;31.23;;;-8.20;99.90;;;;;;5192739;28;20063;-32
2024/01/10 07:23:43;;;;;;;82.73;32.63;;;-8.00;99.90;;;;;;5172217;28;20281;-32
2024/01/10 07:26:17;;;;;;;72.87;32.20;;;-7.80;99.90;;;;;;5176705;28;20041;-31
2024/01/10 07:28:48;;;;;;;76.40;31.27;;;-7.70;99.90;;;;;;5167537;28;20042;-36
2024/01/10 07:31:28;;;;;;;76.60;31.70;;;-7.50;99.90;;;;;;5178883;28;20048;-31
2024/01/10 07:34:06;;;;;;;68.30;31.43;;;-7.30;8.80;;;;;;5189971;28;20040;-33
2024/01/10 07:36:44;;;;;;;71.30;31.30;;;-7.20;1.00;;;;;;5171622;28;20029;-32
2024/01/10 07:39:18;;;;;;;70.93;32.70;;;-7.10;1.00;;;;;;5190033;28;20033;-36
2024/01/10 07:41:49;;;;;;;75.55;30.67;;;-7.10;1.00;;;;;;5175803;28;20326;-37
2024/01/10 07:44:21;;;;;;;62.73;28.67;;;-7.10;99.90;;;;;;5190085;28;20042;-38
2024/01/10 07:46:54;;;;;;;58.43;29.50;;;-7.10;1.00;;;;;;5186670;28;20022;-37
2024/01/10 07:49:26;;;;;;;65.68;30.70;;;-6.90;1.00;;;;;;5189332;28;20037;-37
2024/01/10 07:52:00;;;;;;;63.60;30.97;;;-6.70;1.00;;;;;;5151247;28;20045;-37
2024/01/10 07:54:33;;;;;;;70.30;30.80;;;-6.60;1.00;;;;;;5183733;28;20219;-36
2024/01/10 07:57:08;;;;;;;78.13;32.60;;;-6.40;1.00;;;;;;5187732;28;20034;-33
2024/01/10 07:59:41;;;;;;;68.78;31.17;;;-6.40;99.90;;;;;;5187142;28;20217;-33
2024/01/10 08:02:16;;;;;;;68.93;30.58;;;-6.30;1.00;;;;;;5172361;28;20025;-34
2024/01/10 08:04:51;;;;;;;56.57;29.07;;;-6.20;99.90;;;;;;5191301;28;20234;-34
2024/01/10 08:07:26;;;;;;;75.67;33.33;;;-6.00;99.90;;;;;;5188632;28;20036;-33
2024/01/10 08:10:02;;;;;;;60.17;28.00;;;-6.10;1.00;;;;;;5187959;28;20404;-33
2024/01/10 08:12:41;;;;;;;68.33;31.63;;;-5.90;99.90;;;;;;5178351;28;20034;-35
2024/01/10 08:15:15;;;;;;;64.93;32.03;;;-5.70;99.90;;;;;;5165136;28;20022;-33
2024/01/10 08:17:49;;;;;;;68.70;29.87;;;-5.40;99.90;;;;;;5183311;28;20038;-33
2024/01/10 08:20:20;;;;;;;;;;;-5.30;33.10;;;;;;5166072;28;20037;-33
2024/01/10 08:22:54;;;;;;;69.67;31.40;;;-5.30;1.00;;;;;;5167379;28;19926;-33
2024/01/10 08:25:27;;;;;;;62.70;31.45;;;-5.20;1.00;;;;;;5188752;28;20026;-32
2024/01/10 08:27:58;;;;;;;65.88;31.65;;;-5.20;99.90;;;;;;5184974;28;20034;-32
2024/01/10 08:30:30;;;;;;;66.63;31.60;;;-5.10;99.90;;;;;;5182195;28;20118;-32
2024/01/10 08:33:04;;;;;;;60.53;29.53;;;-5.00;99.90;;;;;;5174818;28;20230;-32
2024/01/10 08:35:35;;;;;;;66.93;31.00;;;-4.90;1.00;;;;;;5182993;28;20352;-33
2024/01/10 08:38:10;;;;;;;59.00;29.03;;;-5.00;12.40;;;;;;5171646;28;20042;-32
2024/01/10 08:40:41;;;;;;;66.83;29.50;;;-4.90;99.90;;;;;;5187117;28;20038;-32
2024/01/10 08:43:18;;;;;;;60.53;28.97;;;-4.80;99.90;;;;;;5172460;28;20023;-32
2024/01/10 08:45:53;;;;;;;62.27;26.77;;;-4.60;99.90;;;;;;5170609;28;20354;-34
2024/01/10 08:48:25;;;;;;;58.17;27.37;;;-4.50;46.00;;;;;;5169401;28;20276;-34
2024/01/10 08:50:58;;;;;;;49.33;23.40;;;-4.40;99.90;;;;;;5169173;28;20034;-34
2024/01/10 08:53:33;;;;;;;50.80;24.35;;;-4.20;1.00;;;;;;5190780;28;20046;-34
2024/01/10 08:56:08;;;;;;;53.13;24.83;;;-4.20;1.00;;;;;;5187799;28;20348;-33
2024/01/10 08:58:41;;;;;;;47.20;23.27;;;-4.10;1.00;;;;;;5166727;28;20225;-34
2024/01/10 09:01:12;;;;;;;53.22;24.95;;;-4.00;1.00;;;;;;5175029;28;20030;-34
2024/01/10 09:03:46;;;;;;;47.13;24.23;;;-3.90;1.00;;;;;;5187586;28;20056;-34
2024/01/10 09:06:17;;;;;;;49.45;23.85;;;-4.10;99.90;;;;;;5170400;28;20034;-34
2024/01/10 09:08:48;;;;;;;46.00;20.83;;;-3.90;1.00;;;;;;5183755;28;20562;-35
2024/01/10 09:11:22;;;;;;;44.40;21.47;;;-3.80;99.90;;;;;;5189487;28;20375;-35
2024/01/10 09:13:58;;;;;;;43.43;21.63;;;-3.80;99.90;;;;;;5186425;28;20040;-35
2024/01/10 09:16:30;;;;;;;40.30;19.47;;;-3.70;99.90;;;;;;5185243;28;20045;-34
2024/01/10 09:19:02;;;;;;;43.10;20.70;;;-3.80;99.90;;;;;;5181360;28;20053;-33
2024/01/10 09:21:37;;;;;;;32.03;16.10;;;-3.70;99.90;;;;;;5181623;28;20344;-32
2024/01/10 09:24:11;;;;;;;;;;;-3.60;99.90;;;;;;5183676;28;20029;-32
2024/01/10 09:26:45;;;;;;;45.43;21.03;;;-3.40;99.90;;;;;;5172260;28;19909;-32
2024/01/10 09:29:19;;;;;;;40.17;21.00;;;-3.30;99.90;;;;;;5176844;28;20272;-33
2024/01/10 09:31:50;;;;;;;34.75;15.02;;;-3.20;99.90;;;;;;5174139;28;20049;-34
2024/01/10 09:34:21;;;;;;;28.30;13.43;;;-3.30;99.90;;;;;;5154180;28;20034;-36
2024/01/10 09:36:56;;;;;;;35.27;15.13;;;-3.20;99.90;;;;;;5187670;28;20040;-37
2024/01/10 09:39:31;;;;;;;35.80;15.47;;;-2.90;99.90;;;;;;5188306;28;20036;-37
2024/01/10 09:42:06;;;;;;;28.97;16.17;;;-2.80;99.90;;;;;;5178439;28;20045;-36
2024/01/10 09:44:40;;;;;;;30.67;13.80;;;-2.70;99.90;;;;;;5188054;28;20038;-36
2024/01/10 09:47:15;;;;;;;28.45;13.40;;;-2.80;99.90;;;;;;5166942;28;20030;-36
2024/01/10 09:49:49;;;;;;;41.83;15.90;;;-2.50;99.90;;;;;;5184001;28;20037;-36
2024/01/10 09:52:37;;;;;;;35.33;16.30;;;-2.20;99.90;;;;;;5168644;28;20042;-36
2024/01/10 09:55:12;;;;;;;21.60;12.90;;;-1.90;1.00;;;;;;5166802;28;20038;-35
2024/01/10 09:57:50;;;;;;;18.77;10.50;;;-2.00;1.00;;;;;;5188812;28;20044;-35
2024/01/10 10:00:25;;;;;;;30.63;13.13;;;-1.70;1.00;;;;;;5167472;28;20384;-34
2024/01/10 10:02:59;;;;;;;34.50;14.73;;;-1.70;1.00;;;;;;5187035;28;20314;-35
2024/01/10 10:05:31;;;;;;;24.25;12.10;;;-1.70;1.00;;;;;;5190982;28;20030;-35
2024/01/10 10:08:06;;;;;;;39.40;12.87;;;-1.20;1.00;;;;;;5189395;28;20030;-33
2024/01/10 10:10:44;;;;;;;31.87;14.50;;;-1.50;1.00;;;;;;5191090;28;20221;-34
2024/01/10 10:13:26;;;;;;;32.50;14.33;;;-1.50;1.00;;;;;;5191489;28;20454;-34
2024/01/10 10:16:02;;;;;;;33.67;16.10;;;-1.20;1.00;;;;;;5187765;28;20028;-35
2024/01/10 10:18:34;;;;;;;26.23;14.48;;;-0.60;1.00;;;;;;5191176;28;20037;-36
2024/01/10 10:21:13;;;;;;;32.17;14.87;;;0.00;1.00;;;;;;5187834;28;20056;-35
2024/01/10 10:24:00;;;;;;;42.92;15.25;;;-0.20;1.00;;;;;;5188486;28;20037;-36
2024/01/10 10:26:35;;;;;;;31.40;15.32;;;0.10;1.00;;;;;;5192426;28;20325;-35
2024/01/10 10:29:06;;;;;;;43.15;17.23;;;0.10;1.00;;;;;;5199466;28;20029;-35
2024/01/10 10:31:37;;;;;;;30.92;16.30;;;0.10;1.00;;;;;;5179028;28;20383;-34
2024/01/10 10:34:10;;;;;;;30.77;15.80;;;0.90;1.00;;;;;;5171190;28;20038;-34
2024/01/10 10:36:46;;;;;;;37.85;16.63;;;1.60;1.00;;;;;;5169557;28;20046;-35
2024/01/10 10:39:18;;;;;;;38.00;16.33;;;2.40;1.00;;;;;;5177645;28;20038;-33
2024/01/10 10:41:52;;;;;;;40.65;16.58;;;2.70;99.90;;;;;;5187264;28;20034;-35
2024/01/10 10:44:28;;;;;;;34.85;17.00;;;2.70;1.00;;;;;;5173373;28;20034;-34
2024/01/10 10:47:08;;;;;;;32.28;16.67;;;3.20;99.90;;;;;;5183518;28;20333;-33
2024/01/10 10:49:56;;;;;;;36.65;16.55;;;3.00;99.90;;;;;;5169988;28;20234;-33
2024/01/10 10:52:32;;;;;;;38.13;16.15;;;2.00;99.90;;;;;;5162920;28;20057;-34
2024/01/10 10:55:05;;;;;;;26.60;13.60;;;1.60;99.90;;;;;;5164554;28;20041;-32
2024/01/10 10:57:36;;;;;;;33.40;14.25;;;1.90;99.90;;;;;;5188405;28;20048;-34
2024/01/10 11:00:15;;;;;;;33.38;16.55;;;2.50;99.90;;;;;;5162512;28;20041;-33
2024/01/10 11:02:49;;;;;;;28.48;16.13;;;3.50;1.00;;;;;;5168297;28;20052;-33
2024/01/10 11:05:31;;;;;;;39.47;16.65;;;4.10;99.90;;;;;;5189469;28;20059;-34
2024/01/10 11:08:04;;;;;;;32.53;17.08;;;4.30;1.00;;;;;;5171040;28;20040;-33
2024/01/10 11:10:38;;;;;;;38.63;17.73;;;5.00;1.00;;;;;;5166139;28;20056;-32
2024/01/10 11:13:18;;;;;;;30.98;12.63;;;5.50;1.00;;;;;;5156545;28;20275;-31
2024/01/10 11:16:14;;;;;;;28.48;14.82;;;4.00;1.00;;;;;;5147505;28;20046;-31
2024/01/10 11:18:56;;;;;;;31.48;15.20;;;3.80;99.90;;;;;;5173572;28;20038;-31
2024/01/10 11:22:08;;;;;;;;;;;4.10;99.90;;;;;;5170554;28;20061;-32
2024/01/10 11:24:44;;;;;;;32.70;16.15;;;4.60;99.90;;;;;;5003504;28;19941;-32
2024/01/10 11:27:19;;;;;;;33.92;15.38;;;4.50;99.90;;;;;;5149257;28;20042;-33
2024/01/10 11:29:51;;;;;;;29.50;15.38;;;5.20;99.90;;;;;;5151166;28;20389;-33
2024/01/10 11:32:23;;;;;;;36.00;16.73;;;5.60;99.90;;;;;;5145973;28;20057;-33
2024/01/10 11:35:04;;;;;;;31.77;14.82;;;4.90;99.90;;;;;;5143627;28;20372;-33
2024/01/10 11:37:49;;;;;;;34.42;15.95;;;4.30;99.90;;;;;;5170494;28;20033;-33
2024/01/10 11:40:50;;;;;;;31.40;14.25;;;5.30;99.90;;;;;;5144138;28;20057;-33
2024/01/10 11:43:21;;;;;;;29.90;15.75;;;6.20;99.90;;;;;;5138068;28;20456;-33
2024/01/10 11:45:55;;;;;;;30.30;16.42;;;6.40;99.90;;;;;;5159914;28;20402;-34
2024/01/10 11:48:32;;;;;;;31.25;16.05;;;6.00;99.90;;;;;;5160024;28;20033;-34
2024/01/10 11:51:10;;;;;;;29.17;14.75;;;6.30;99.90;;;;;;5153789;28;20404;-34
2024/01/10 11:53:50;;;;;;;32.50;16.33;;;6.90;99.90;;;;;;5144015;28;20042;-33
2024/01/10 11:56:22;;;;;;;34.55;14.85;;;6.60;99.90;;;;;;5171160;28;20041;-33
2024/01/10 11:59:03;;;;;;;26.92;13.93;;;7.20;99.90;;;;;;5181659;28;20045;-36
2024/01/10 12:01:36;;;;;;;24.80;13.43;;;7.10;99.90;;;;;;5138575;28;20420;-33
2024/01/10 12:04:09;;;;;;;30.15;14.65;;;6.90;99.90;;;;;;5174504;28;20036;-33
2024/01/10 12:06:40;;;;;;;30.58;14.38;;;6.30;99.90;;;;;;5157828;28;20041;-33
2024/01/10 12:09:14;;;;;;;28.95;13.52;;;6.20;99.90;;;;;;5187134;28;20040;-33
2024/01/10 12:11:50;;;;;;;26.58;15.50;;;5.80;99.90;;;;;;5159355;28;20064;-33
2024/01/10 12:14:25;;;;;;;26.80;14.65;;;6.20;99.90;;;;;;5186438;28;20041;-33
2024/01/10 12:17:00;;;;;;;22.17;11.98;;;5.90;99.90;;;;;;5162164;28;20053;-33
2024/01/10 12:19:34;;;;;;;30.05;13.48;;;5.60;99.90;;;;;;5186151;28;20183;-33
2024/01/10 12:22:06;;;;;;;29.23;13.57;;;5.50;99.90;;;;;;5175531;28;20349;-34
2024/01/10 12:24:49;;;;;;;26.77;14.18;;;4.50;99.90;;;;;;5187464;28;20341;-34
2024/01/10 12:27:24;;;;;;;27.83;15.40;;;4.40;99.90;;;;;;5175109;28;21107;-34
2024/01/10 12:29:58;;;;;;;29.38;14.23;;;5.00;99.90;;;;;;5190120;28;20379;-34
2024/01/10 12:32:31;;;;;;;30.60;15.20;;;5.80;99.90;;;;;;5168703;28;20049;-37
2024/01/10 12:35:06;;;;;;;27.02;13.65;;;5.90;99.90;;;;;;5192317;28;20033;-35
2024/01/10 12:37:40;;;;;;;31.70;14.77;;;6.00;99.90;;;;;;5178798;28;20092;-36
2024/01/10 12:40:14;;;;;;;27.65;13.38;;;6.70;99.90;;;;;;5165094;28;20041;-36
2024/01/10 12:42:48;;;;;;;25.05;12.93;;;7.10;99.90;;;;;;5172461;28;20044;-35
2024/01/10 12:45:23;;;;;;;23.42;13.55;;;7.00;99.90;;;;;;5166608;28;20286;-35
2024/01/10 12:47:56;;;;;;;24.20;12.38;;;7.00;99.90;;;;;;5166427;28;20310;-35
2024/01/10 12:50:29;;;;;;;20.50;11.70;;;6.70;99.90;;;;;;5182776;28;20047;-37
2024/01/10 12:53:02;;;;;;;24.90;12.65;;;5.80;99.90;;;;;;5182232;28;20113;-35
2024/01/10 12:55:33;;;;;;;23.60;11.90;;;4.10;99.90;;;;;;5184158;28;20033;-36
2024/01/10 12:58:08;;;;;;;23.38;11.82;;;4.40;99.90;;;;;;5163192;28;20053;-35
2024/01/10 13:00:41;;;;;;;25.80;12.73;;;5.10;99.90;;;;;;5169685;28;20484;-35
2024/01/10 13:03:13;;;;;;;25.23;12.98;;;5.40;99.90;;;;;;5157760;28;20046;-35
2024/01/10 13:05:47;;;;;;;23.67;12.85;;;5.70;99.90;;;;;;5181925;28;20036;-35
2024/01/10 13:08:20;;;;;;;27.13;13.13;;;5.40;99.90;;;;;;5175501;28;20149;-34
2024/01/10 13:10:52;;;;;;;;;;;5.20;99.90;;;;;;5184580;28;20226;-35
2024/01/10 13:13:24;;;;;;;21.30;11.80;;;4.50;99.90;;;;;;5175484;28;19924;-34